sensor_id;sensor_type;location;lat;lon;timestamp;P1;durP1;ratioP1;P2;durP2;ratioP2
39022;SDS011;25908;51.984;5.928;2023-04-16T00:00:51;15.65;;;5.53;;
39022;SDS011;25908;51.984;5.928;2023-04-16T00:03:17;10.90;;;5.65;;
39022;SDS011;25908;51.984;5.928;2023-04-16T00:05:44;12.82;;;5.38;;
39022;SDS011;25908;51.984;5.928;2023-04-16T00:08:13;21.05;;;8.13;;
39022;SDS011;25908;51.984;5.928;2023-04-16T00:10:39;14.70;;;6.18;;
39022;SDS011;25908;51.984;5.928;2023-04-16T00:13:05;14.25;;;6.05;;
39022;SDS011;25908;51.984;5.928;2023-04-16T00:15:37;14.68;;;5.72;;
39022;SDS011;25908;51.984;5.928;2023-04-16T00:18:05;18.00;;;6.75;;
39022;SDS011;25908;51.984;5.928;2023-04-16T00:20:31;20.50;;;6.75;;
39022;SDS011;25908;51.984;5.928;2023-04-16T00:22:57;13.18;;;6.00;;
39022;SDS011;25908;51.984;5.928;2023-04-16T00:25:23;14.65;;;6.60;;
39022;SDS011;25908;51.984;5.928;2023-04-16T00:27:49;15.95;;;6.95;;
39022;SDS011;25908;51.984;5.928;2023-04-16T00:30:15;13.07;;;6.35;;
39022;SDS011;25908;51.984;5.928;2023-04-16T00:32:40;11.57;;;5.70;;
39022;SDS011;25908;51.984;5.928;2023-04-16T00:35:06;16.35;;;6.70;;
39022;SDS011;25908;51.984;5.928;2023-04-16T00:37:32;14.43;;;6.22;;
39022;SDS011;25908;51.984;5.928;2023-04-16T00:39:58;19.65;;;7.35;;
39022;SDS011;25908;51.984;5.928;2023-04-16T00:42:23;17.88;;;6.93;;
39022;SDS011;25908;51.984;5.928;2023-04-16T00:44:49;17.15;;;6.72;;
39022;SDS011;25908;51.984;5.928;2023-04-16T00:47:16;16.63;;;6.82;;
39022;SDS011;25908;51.984;5.928;2023-04-16T00:49:43;16.65;;;7.25;;
39022;SDS011;25908;51.984;5.928;2023-04-16T00:52:10;18.88;;;8.45;;
39022;SDS011;25908;51.984;5.928;2023-04-16T00:54:36;17.98;;;6.72;;
39022;SDS011;25908;51.984;5.928;2023-04-16T00:57:01;17.42;;;7.35;;
39022;SDS011;25908;51.984;5.928;2023-04-16T00:59:27;16.95;;;7.55;;
39022;SDS011;25908;51.984;5.928;2023-04-16T01:01:56;14.55;;;7.05;;
39022;SDS011;25908;51.984;5.928;2023-04-16T01:04:21;16.90;;;6.65;;
39022;SDS011;25908;51.984;5.928;2023-04-16T01:06:49;16.35;;;7.18;;
39022;SDS011;25908;51.984;5.928;2023-04-16T01:09:15;16.05;;;7.25;;
39022;SDS011;25908;51.984;5.928;2023-04-16T01:11:41;20.42;;;7.85;;
39022;SDS011;25908;51.984;5.928;2023-04-16T01:14:07;15.57;;;7.10;;
39022;SDS011;25908;51.984;5.928;2023-04-16T01:16:33;14.25;;;6.97;;
39022;SDS011;25908;51.984;5.928;2023-04-16T01:18:59;14.93;;;7.30;;
39022;SDS011;25908;51.984;5.928;2023-04-16T01:21:28;17.75;;;7.40;;
39022;SDS011;25908;51.984;5.928;2023-04-16T01:23:54;20.35;;;8.40;;
39022;SDS011;25908;51.984;5.928;2023-04-16T01:26:21;17.42;;;7.70;;
39022;SDS011;25908;51.984;5.928;2023-04-16T01:28:47;16.05;;;8.50;;
39022;SDS011;25908;51.984;5.928;2023-04-16T01:31:12;18.30;;;8.43;;
39022;SDS011;25908;51.984;5.928;2023-04-16T01:33:39;18.92;;;7.85;;
39022;SDS011;25908;51.984;5.928;2023-04-16T01:36:05;18.95;;;8.88;;
39022;SDS011;25908;51.984;5.928;2023-04-16T01:38:31;16.08;;;8.05;;
39022;SDS011;25908;51.984;5.928;2023-04-16T01:40:57;19.55;;;8.43;;
39022;SDS011;25908;51.984;5.928;2023-04-16T01:43:23;17.77;;;8.50;;
39022;SDS011;25908;51.984;5.928;2023-04-16T01:45:49;19.65;;;9.20;;
39022;SDS011;25908;51.984;5.928;2023-04-16T01:48:16;21.85;;;8.95;;
39022;SDS011;25908;51.984;5.928;2023-04-16T01:50:42;16.52;;;8.30;;
39022;SDS011;25908;51.984;5.928;2023-04-16T01:53:08;22.08;;;9.35;;
39022;SDS011;25908;51.984;5.928;2023-04-16T01:55:33;21.25;;;8.85;;
39022;SDS011;25908;51.984;5.928;2023-04-16T01:57:59;21.48;;;10.00;;
39022;SDS011;25908;51.984;5.928;2023-04-16T02:00:24;24.42;;;10.80;;
39022;SDS011;25908;51.984;5.928;2023-04-16T02:02:50;19.50;;;9.65;;
39022;SDS011;25908;51.984;5.928;2023-04-16T02:05:16;22.08;;;9.85;;
39022;SDS011;25908;51.984;5.928;2023-04-16T02:07:41;21.15;;;10.15;;
39022;SDS011;25908;51.984;5.928;2023-04-16T02:10:09;17.85;;;9.52;;
39022;SDS011;25908;51.984;5.928;2023-04-16T02:12:35;19.20;;;10.63;;
39022;SDS011;25908;51.984;5.928;2023-04-16T02:15:03;18.83;;;10.02;;
39022;SDS011;25908;51.984;5.928;2023-04-16T02:17:29;21.20;;;10.02;;
39022;SDS011;25908;51.984;5.928;2023-04-16T02:19:55;22.42;;;10.52;;
39022;SDS011;25908;51.984;5.928;2023-04-16T02:22:21;19.63;;;10.68;;
39022;SDS011;25908;51.984;5.928;2023-04-16T02:24:46;24.52;;;11.45;;
39022;SDS011;25908;51.984;5.928;2023-04-16T02:27:12;18.48;;;10.48;;
39022;SDS011;25908;51.984;5.928;2023-04-16T02:29:37;21.80;;;11.25;;
39022;SDS011;25908;51.984;5.928;2023-04-16T02:32:03;25.70;;;11.98;;
39022;SDS011;25908;51.984;5.928;2023-04-16T02:34:29;22.23;;;11.07;;
39022;SDS011;25908;51.984;5.928;2023-04-16T02:36:57;21.50;;;10.40;;
39022;SDS011;25908;51.984;5.928;2023-04-16T02:39:23;25.17;;;13.07;;
39022;SDS011;25908;51.984;5.928;2023-04-16T02:41:49;22.35;;;11.23;;
39022;SDS011;25908;51.984;5.928;2023-04-16T02:44:14;23.85;;;12.05;;
39022;SDS011;25908;51.984;5.928;2023-04-16T02:46:43;21.05;;;11.20;;
39022;SDS011;25908;51.984;5.928;2023-04-16T02:49:08;20.58;;;11.48;;
39022;SDS011;25908;51.984;5.928;2023-04-16T02:51:34;26.45;;;12.20;;
39022;SDS011;25908;51.984;5.928;2023-04-16T02:54:00;23.83;;;12.25;;
39022;SDS011;25908;51.984;5.928;2023-04-16T02:56:27;29.63;;;12.85;;
39022;SDS011;25908;51.984;5.928;2023-04-16T02:58:52;25.77;;;12.38;;
39022;SDS011;25908;51.984;5.928;2023-04-16T03:01:18;25.98;;;12.48;;
39022;SDS011;25908;51.984;5.928;2023-04-16T03:03:45;21.48;;;11.95;;
39022;SDS011;25908;51.984;5.928;2023-04-16T03:06:10;21.25;;;12.00;;
39022;SDS011;25908;51.984;5.928;2023-04-16T03:08:36;27.88;;;13.52;;
39022;SDS011;25908;51.984;5.928;2023-04-16T03:11:02;23.90;;;12.43;;
39022;SDS011;25908;51.984;5.928;2023-04-16T03:13:28;26.70;;;12.35;;
39022;SDS011;25908;51.984;5.928;2023-04-16T03:15:53;30.10;;;13.43;;
39022;SDS011;25908;51.984;5.928;2023-04-16T03:18:19;24.60;;;13.13;;
39022;SDS011;25908;51.984;5.928;2023-04-16T03:20:45;22.77;;;11.80;;
39022;SDS011;25908;51.984;5.928;2023-04-16T03:23:15;21.63;;;12.43;;
39022;SDS011;25908;51.984;5.928;2023-04-16T03:25:40;24.92;;;13.18;;
39022;SDS011;25908;51.984;5.928;2023-04-16T03:28:08;28.20;;;13.30;;
39022;SDS011;25908;51.984;5.928;2023-04-16T03:30:34;25.42;;;14.25;;
39022;SDS011;25908;51.984;5.928;2023-04-16T03:33:00;26.35;;;14.25;;
39022;SDS011;25908;51.984;5.928;2023-04-16T03:35:25;25.50;;;14.23;;
39022;SDS011;25908;51.984;5.928;2023-04-16T03:37:51;24.10;;;13.85;;
39022;SDS011;25908;51.984;5.928;2023-04-16T03:40:17;24.17;;;13.65;;
39022;SDS011;25908;51.984;5.928;2023-04-16T03:42:42;24.25;;;13.13;;
39022;SDS011;25908;51.984;5.928;2023-04-16T03:45:08;26.33;;;13.00;;
39022;SDS011;25908;51.984;5.928;2023-04-16T03:47:34;22.80;;;13.73;;
39022;SDS011;25908;51.984;5.928;2023-04-16T03:50:00;24.63;;;13.55;;
39022;SDS011;25908;51.984;5.928;2023-04-16T03:52:25;24.05;;;13.07;;
39022;SDS011;25908;51.984;5.928;2023-04-16T03:54:52;25.02;;;14.23;;
39022;SDS011;25908;51.984;5.928;2023-04-16T03:57:20;23.73;;;13.93;;
39022;SDS011;25908;51.984;5.928;2023-04-16T03:59:46;22.83;;;12.93;;
39022;SDS011;25908;51.984;5.928;2023-04-16T04:02:12;23.95;;;13.95;;
39022;SDS011;25908;51.984;5.928;2023-04-16T04:04:37;25.15;;;14.68;;
39022;SDS011;25908;51.984;5.928;2023-04-16T04:07:03;25.90;;;12.77;;
39022;SDS011;25908;51.984;5.928;2023-04-16T04:09:31;28.98;;;14.15;;
39022;SDS011;25908;51.984;5.928;2023-04-16T04:11:57;27.05;;;14.48;;
39022;SDS011;25908;51.984;5.928;2023-04-16T04:14:23;26.55;;;14.70;;
39022;SDS011;25908;51.984;5.928;2023-04-16T04:16:49;28.40;;;14.68;;
39022;SDS011;25908;51.984;5.928;2023-04-16T04:19:17;25.13;;;13.73;;
39022;SDS011;25908;51.984;5.928;2023-04-16T04:21:42;28.58;;;15.15;;
39022;SDS011;25908;51.984;5.928;2023-04-16T04:24:08;25.30;;;14.75;;
39022;SDS011;25908;51.984;5.928;2023-04-16T04:26:34;25.60;;;14.70;;
39022;SDS011;25908;51.984;5.928;2023-04-16T04:29:02;26.77;;;15.10;;
39022;SDS011;25908;51.984;5.928;2023-04-16T04:31:28;23.92;;;14.65;;
39022;SDS011;25908;51.984;5.928;2023-04-16T04:33:54;31.48;;;14.77;;
39022;SDS011;25908;51.984;5.928;2023-04-16T04:36:19;25.95;;;14.75;;
39022;SDS011;25908;51.984;5.928;2023-04-16T04:38:45;25.65;;;14.98;;
39022;SDS011;25908;51.984;5.928;2023-04-16T04:41:11;28.48;;;15.27;;
39022;SDS011;25908;51.984;5.928;2023-04-16T04:43:36;27.25;;;14.70;;
39022;SDS011;25908;51.984;5.928;2023-04-16T04:46:02;32.10;;;16.30;;
39022;SDS011;25908;51.984;5.928;2023-04-16T04:48:28;30.15;;;15.13;;
39022;SDS011;25908;51.984;5.928;2023-04-16T04:50:53;26.65;;;15.38;;
39022;SDS011;25908;51.984;5.928;2023-04-16T04:53:19;26.85;;;15.23;;
39022;SDS011;25908;51.984;5.928;2023-04-16T04:55:45;26.65;;;15.30;;
39022;SDS011;25908;51.984;5.928;2023-04-16T04:58:10;31.27;;;16.35;;
39022;SDS011;25908;51.984;5.928;2023-04-16T05:00:36;30.98;;;15.35;;
39022;SDS011;25908;51.984;5.928;2023-04-16T05:03:03;30.13;;;15.90;;
39022;SDS011;25908;51.984;5.928;2023-04-16T05:05:30;31.15;;;15.75;;
39022;SDS011;25908;51.984;5.928;2023-04-16T05:07:56;25.80;;;15.25;;
39022;SDS011;25908;51.984;5.928;2023-04-16T05:10:22;28.60;;;15.18;;
39022;SDS011;25908;51.984;5.928;2023-04-16T05:12:47;27.02;;;15.93;;
39022;SDS011;25908;51.984;5.928;2023-04-16T05:15:13;27.45;;;15.90;;
39022;SDS011;25908;51.984;5.928;2023-04-16T05:17:40;28.05;;;15.40;;
39022;SDS011;25908;51.984;5.928;2023-04-16T05:20:07;31.90;;;16.77;;
39022;SDS011;25908;51.984;5.928;2023-04-16T05:22:33;30.20;;;15.85;;
39022;SDS011;25908;51.984;5.928;2023-04-16T05:24:59;28.75;;;17.08;;
39022;SDS011;25908;51.984;5.928;2023-04-16T05:27:25;33.17;;;17.42;;
39022;SDS011;25908;51.984;5.928;2023-04-16T05:29:51;30.30;;;16.20;;
39022;SDS011;25908;51.984;5.928;2023-04-16T05:32:16;33.25;;;16.30;;
39022;SDS011;25908;51.984;5.928;2023-04-16T05:34:42;32.25;;;16.73;;
39022;SDS011;25908;51.984;5.928;2023-04-16T05:37:07;30.90;;;16.85;;
39022;SDS011;25908;51.984;5.928;2023-04-16T05:39:33;33.55;;;18.25;;
39022;SDS011;25908;51.984;5.928;2023-04-16T05:41:59;31.33;;;17.30;;
39022;SDS011;25908;51.984;5.928;2023-04-16T05:44:25;32.65;;;17.58;;
39022;SDS011;25908;51.984;5.928;2023-04-16T05:46:51;29.90;;;16.95;;
39022;SDS011;25908;51.984;5.928;2023-04-16T05:49:16;33.40;;;16.83;;
39022;SDS011;25908;51.984;5.928;2023-04-16T05:51:46;36.08;;;17.90;;
39022;SDS011;25908;51.984;5.928;2023-04-16T05:54:13;32.08;;;16.95;;
39022;SDS011;25908;51.984;5.928;2023-04-16T05:56:39;29.92;;;17.58;;
39022;SDS011;25908;51.984;5.928;2023-04-16T05:59:05;33.50;;;17.13;;
39022;SDS011;25908;51.984;5.928;2023-04-16T06:01:31;27.65;;;15.98;;
39022;SDS011;25908;51.984;5.928;2023-04-16T06:03:57;30.17;;;15.85;;
39022;SDS011;25908;51.984;5.928;2023-04-16T06:06:23;26.90;;;16.02;;
39022;SDS011;25908;51.984;5.928;2023-04-16T06:08:48;28.35;;;15.45;;
39022;SDS011;25908;51.984;5.928;2023-04-16T06:11:14;29.13;;;16.45;;
39022;SDS011;25908;51.984;5.928;2023-04-16T06:13:40;24.90;;;14.93;;
39022;SDS011;25908;51.984;5.928;2023-04-16T06:16:09;27.08;;;15.45;;
39022;SDS011;25908;51.984;5.928;2023-04-16T06:18:34;32.42;;;16.67;;
39022;SDS011;25908;51.984;5.928;2023-04-16T06:21:00;27.70;;;15.80;;
39022;SDS011;25908;51.984;5.928;2023-04-16T06:23:27;28.05;;;15.60;;
39022;SDS011;25908;51.984;5.928;2023-04-16T06:25:53;24.25;;;14.48;;
39022;SDS011;25908;51.984;5.928;2023-04-16T06:28:19;25.85;;;15.15;;
39022;SDS011;25908;51.984;5.928;2023-04-16T06:30:45;31.13;;;15.32;;
39022;SDS011;25908;51.984;5.928;2023-04-16T06:33:11;26.23;;;14.23;;
39022;SDS011;25908;51.984;5.928;2023-04-16T06:35:37;22.20;;;14.25;;
39022;SDS011;25908;51.984;5.928;2023-04-16T06:38:02;27.67;;;15.32;;
39022;SDS011;25908;51.984;5.928;2023-04-16T06:40:28;25.90;;;15.50;;
39022;SDS011;25908;51.984;5.928;2023-04-16T06:42:54;24.88;;;15.20;;
39022;SDS011;25908;51.984;5.928;2023-04-16T06:45:20;22.08;;;14.75;;
39022;SDS011;25908;51.984;5.928;2023-04-16T06:47:48;22.05;;;13.65;;
39022;SDS011;25908;51.984;5.928;2023-04-16T06:50:14;22.05;;;14.98;;
39022;SDS011;25908;51.984;5.928;2023-04-16T06:52:40;22.27;;;13.13;;
39022;SDS011;25908;51.984;5.928;2023-04-16T06:55:06;24.08;;;13.82;;
39022;SDS011;25908;51.984;5.928;2023-04-16T06:57:33;25.98;;;14.45;;
39022;SDS011;25908;51.984;5.928;2023-04-16T06:59:59;22.05;;;14.52;;
39022;SDS011;25908;51.984;5.928;2023-04-16T07:02:25;25.05;;;14.65;;
39022;SDS011;25908;51.984;5.928;2023-04-16T07:04:51;26.33;;;15.70;;
39022;SDS011;25908;51.984;5.928;2023-04-16T07:07:19;23.63;;;15.02;;
39022;SDS011;25908;51.984;5.928;2023-04-16T07:09:45;23.73;;;14.27;;
39022;SDS011;25908;51.984;5.928;2023-04-16T07:12:10;23.80;;;13.95;;
39022;SDS011;25908;51.984;5.928;2023-04-16T07:14:37;24.05;;;14.00;;
39022;SDS011;25908;51.984;5.928;2023-04-16T07:17:03;21.20;;;13.75;;
39022;SDS011;25908;51.984;5.928;2023-04-16T07:19:28;22.58;;;14.32;;
39022;SDS011;25908;51.984;5.928;2023-04-16T07:21:56;21.90;;;13.38;;
39022;SDS011;25908;51.984;5.928;2023-04-16T07:24:25;21.60;;;13.65;;
39022;SDS011;25908;51.984;5.928;2023-04-16T07:26:51;21.02;;;14.63;;
39022;SDS011;25908;51.984;5.928;2023-04-16T07:29:16;25.48;;;14.70;;
39022;SDS011;25908;51.984;5.928;2023-04-16T07:31:43;23.73;;;14.10;;
39022;SDS011;25908;51.984;5.928;2023-04-16T07:34:09;21.77;;;13.73;;
39022;SDS011;25908;51.984;5.928;2023-04-16T07:36:35;22.15;;;14.18;;
39022;SDS011;25908;51.984;5.928;2023-04-16T07:39:03;22.38;;;13.80;;
39022;SDS011;25908;51.984;5.928;2023-04-16T07:41:30;24.70;;;14.25;;
39022;SDS011;25908;51.984;5.928;2023-04-16T07:43:58;21.75;;;13.63;;
39022;SDS011;25908;51.984;5.928;2023-04-16T07:46:24;21.55;;;13.27;;
39022;SDS011;25908;51.984;5.928;2023-04-16T07:48:49;21.27;;;14.35;;
39022;SDS011;25908;51.984;5.928;2023-04-16T07:51:15;20.65;;;13.88;;
39022;SDS011;25908;51.984;5.928;2023-04-16T07:53:41;21.50;;;13.75;;
39022;SDS011;25908;51.984;5.928;2023-04-16T07:56:07;24.10;;;14.75;;
39022;SDS011;25908;51.984;5.928;2023-04-16T07:58:33;20.52;;;14.25;;
39022;SDS011;25908;51.984;5.928;2023-04-16T08:01:02;20.92;;;13.77;;
39022;SDS011;25908;51.984;5.928;2023-04-16T08:03:27;25.38;;;15.43;;
39022;SDS011;25908;51.984;5.928;2023-04-16T08:05:53;21.95;;;14.60;;
39022;SDS011;25908;51.984;5.928;2023-04-16T08:08:19;22.77;;;14.75;;
39022;SDS011;25908;51.984;5.928;2023-04-16T08:10:45;21.55;;;13.80;;
39022;SDS011;25908;51.984;5.928;2023-04-16T08:13:10;25.20;;;14.82;;
39022;SDS011;25908;51.984;5.928;2023-04-16T08:15:36;22.05;;;14.00;;
39022;SDS011;25908;51.984;5.928;2023-04-16T08:18:01;24.92;;;15.15;;
39022;SDS011;25908;51.984;5.928;2023-04-16T08:20:29;20.98;;;13.45;;
39022;SDS011;25908;51.984;5.928;2023-04-16T08:22:55;23.35;;;14.25;;
39022;SDS011;25908;51.984;5.928;2023-04-16T08:25:21;24.95;;;14.85;;
39022;SDS011;25908;51.984;5.928;2023-04-16T08:27:48;21.80;;;12.95;;
39022;SDS011;25908;51.984;5.928;2023-04-16T08:30:14;20.92;;;13.98;;
39022;SDS011;25908;51.984;5.928;2023-04-16T08:32:41;21.88;;;14.10;;
39022;SDS011;25908;51.984;5.928;2023-04-16T08:35:07;25.45;;;14.65;;
39022;SDS011;25908;51.984;5.928;2023-04-16T08:37:33;22.33;;;14.15;;
39022;SDS011;25908;51.984;5.928;2023-04-16T08:39:59;23.98;;;15.43;;
39022;SDS011;25908;51.984;5.928;2023-04-16T08:42:39;24.70;;;15.55;;
39022;SDS011;25908;51.984;5.928;2023-04-16T08:45:20;24.40;;;14.38;;
39022;SDS011;25908;51.984;5.928;2023-04-16T08:47:50;24.38;;;15.13;;
39022;SDS011;25908;51.984;5.928;2023-04-16T08:50:21;24.50;;;15.38;;
39022;SDS011;25908;51.984;5.928;2023-04-16T08:52:53;27.38;;;16.65;;
39022;SDS011;25908;51.984;5.928;2023-04-16T08:55:25;27.75;;;16.15;;
39022;SDS011;25908;51.984;5.928;2023-04-16T08:57:59;27.60;;;15.68;;
39022;SDS011;25908;51.984;5.928;2023-04-16T09:00:27;27.67;;;16.40;;
39022;SDS011;25908;51.984;5.928;2023-04-16T09:02:55;24.73;;;15.50;;
39022;SDS011;25908;51.984;5.928;2023-04-16T09:05:21;27.42;;;16.95;;
39022;SDS011;25908;51.984;5.928;2023-04-16T09:07:49;28.30;;;17.60;;
39022;SDS011;25908;51.984;5.928;2023-04-16T09:10:17;27.15;;;16.48;;
39022;SDS011;25908;51.984;5.928;2023-04-16T09:12:44;24.60;;;16.23;;
39022;SDS011;25908;51.984;5.928;2023-04-16T09:15:10;28.58;;;16.60;;
39022;SDS011;25908;51.984;5.928;2023-04-16T09:17:37;27.27;;;16.30;;
39022;SDS011;25908;51.984;5.928;2023-04-16T09:20:06;26.83;;;16.17;;
39022;SDS011;25908;51.984;5.928;2023-04-16T09:22:36;28.45;;;16.27;;
39022;SDS011;25908;51.984;5.928;2023-04-16T09:25:02;27.02;;;17.05;;
39022;SDS011;25908;51.984;5.928;2023-04-16T09:27:29;30.10;;;17.83;;
39022;SDS011;25908;51.984;5.928;2023-04-16T09:29:55;29.15;;;17.63;;
39022;SDS011;25908;51.984;5.928;2023-04-16T09:32:23;27.92;;;17.13;;
39022;SDS011;25908;51.984;5.928;2023-04-16T09:34:55;24.50;;;16.58;;
39022;SDS011;25908;51.984;5.928;2023-04-16T09:37:21;24.45;;;16.23;;
39022;SDS011;25908;51.984;5.928;2023-04-16T09:40:00;26.38;;;17.02;;
39022;SDS011;25908;51.984;5.928;2023-04-16T09:42:28;24.17;;;16.25;;
39022;SDS011;25908;51.984;5.928;2023-04-16T09:44:56;27.05;;;16.48;;
39022;SDS011;25908;51.984;5.928;2023-04-16T09:47:24;28.15;;;16.45;;
39022;SDS011;25908;51.984;5.928;2023-04-16T09:49:50;31.73;;;18.08;;
39022;SDS011;25908;51.984;5.928;2023-04-16T09:52:20;29.95;;;16.48;;
39022;SDS011;25908;51.984;5.928;2023-04-16T09:54:51;29.50;;;17.70;;
39022;SDS011;25908;51.984;5.928;2023-04-16T09:59:47;25.83;;;16.15;;
39022;SDS011;25908;51.984;5.928;2023-04-16T10:02:17;26.63;;;17.45;;
39022;SDS011;25908;51.984;5.928;2023-04-16T10:04:47;26.83;;;16.33;;
39022;SDS011;25908;51.984;5.928;2023-04-16T10:07:14;27.20;;;15.40;;
39022;SDS011;25908;51.984;5.928;2023-04-16T10:09:40;27.52;;;16.45;;
39022;SDS011;25908;51.984;5.928;2023-04-16T10:12:06;24.58;;;17.13;;
39022;SDS011;25908;51.984;5.928;2023-04-16T10:14:36;26.23;;;15.73;;
39022;SDS011;25908;51.984;5.928;2023-04-16T10:17:02;25.85;;;15.55;;
39022;SDS011;25908;51.984;5.928;2023-04-16T10:19:30;25.27;;;15.32;;
39022;SDS011;25908;51.984;5.928;2023-04-16T10:21:56;23.30;;;14.45;;
39022;SDS011;25908;51.984;5.928;2023-04-16T10:24:24;25.42;;;15.13;;
39022;SDS011;25908;51.984;5.928;2023-04-16T10:26:50;22.30;;;15.85;;
39022;SDS011;25908;51.984;5.928;2023-04-16T10:29:17;24.08;;;15.60;;
39022;SDS011;25908;51.984;5.928;2023-04-16T10:31:45;22.65;;;14.60;;
39022;SDS011;25908;51.984;5.928;2023-04-16T10:34:12;24.55;;;14.60;;
39022;SDS011;25908;51.984;5.928;2023-04-16T10:36:47;23.27;;;15.15;;
39022;SDS011;25908;51.984;5.928;2023-04-16T10:39:20;26.60;;;14.88;;
39022;SDS011;25908;51.984;5.928;2023-04-16T10:42:05;21.15;;;13.90;;
39022;SDS011;25908;51.984;5.928;2023-04-16T10:44:34;23.85;;;13.45;;
39022;SDS011;25908;51.984;5.928;2023-04-16T10:47:00;19.88;;;13.90;;
39022;SDS011;25908;51.984;5.928;2023-04-16T10:49:26;25.45;;;14.68;;
39022;SDS011;25908;51.984;5.928;2023-04-16T10:51:54;23.77;;;15.35;;
39022;SDS011;25908;51.984;5.928;2023-04-16T10:56:56;22.20;;;14.70;;
39022;SDS011;25908;51.984;5.928;2023-04-16T10:59:49;24.20;;;14.10;;
39022;SDS011;25908;51.984;5.928;2023-04-16T11:02:15;23.10;;;14.13;;
39022;SDS011;25908;51.984;5.928;2023-04-16T11:04:42;23.52;;;13.57;;
39022;SDS011;25908;51.984;5.928;2023-04-16T11:09:55;21.75;;;13.98;;
39022;SDS011;25908;51.984;5.928;2023-04-16T11:12:32;20.42;;;13.38;;
39022;SDS011;25908;51.984;5.928;2023-04-16T11:17:32;21.08;;;13.77;;
39022;SDS011;25908;51.984;5.928;2023-04-16T11:20:14;18.38;;;12.15;;
39022;SDS011;25908;51.984;5.928;2023-04-16T11:22:41;19.95;;;12.18;;
39022;SDS011;25908;51.984;5.928;2023-04-16T11:25:09;21.17;;;12.43;;
39022;SDS011;25908;51.984;5.928;2023-04-16T11:27:35;23.45;;;12.02;;
39022;SDS011;25908;51.984;5.928;2023-04-16T11:30:04;19.08;;;12.52;;
39022;SDS011;25908;51.984;5.928;2023-04-16T11:32:34;21.90;;;12.45;;
39022;SDS011;25908;51.984;5.928;2023-04-16T11:35:01;21.90;;;11.90;;
39022;SDS011;25908;51.984;5.928;2023-04-16T11:39:58;18.92;;;12.43;;
39022;SDS011;25908;51.984;5.928;2023-04-16T11:42:25;22.38;;;12.45;;
39022;SDS011;25908;51.984;5.928;2023-04-16T11:44:53;19.65;;;11.15;;
39022;SDS011;25908;51.984;5.928;2023-04-16T11:47:21;23.95;;;12.95;;
39022;SDS011;25908;51.984;5.928;2023-04-16T11:49:48;23.10;;;12.20;;
39022;SDS011;25908;51.984;5.928;2023-04-16T11:52:23;22.40;;;12.55;;
39022;SDS011;25908;51.984;5.928;2023-04-16T11:54:56;16.73;;;11.00;;
39022;SDS011;25908;51.984;5.928;2023-04-16T11:57:23;20.27;;;11.45;;
39022;SDS011;25908;51.984;5.928;2023-04-16T11:59:50;19.00;;;11.45;;
39022;SDS011;25908;51.984;5.928;2023-04-16T12:02:16;19.58;;;11.88;;
39022;SDS011;25908;51.984;5.928;2023-04-16T12:04:41;19.67;;;11.32;;
39022;SDS011;25908;51.984;5.928;2023-04-16T12:07:08;19.88;;;11.73;;
39022;SDS011;25908;51.984;5.928;2023-04-16T12:09:35;17.17;;;11.27;;
39022;SDS011;25908;51.984;5.928;2023-04-16T12:12:02;18.50;;;11.43;;
39022;SDS011;25908;51.984;5.928;2023-04-16T12:14:28;18.65;;;11.00;;
39022;SDS011;25908;51.984;5.928;2023-04-16T12:16:54;19.27;;;11.45;;
39022;SDS011;25908;51.984;5.928;2023-04-16T12:19:20;22.20;;;11.80;;
39022;SDS011;25908;51.984;5.928;2023-04-16T12:21:47;20.83;;;11.55;;
39022;SDS011;25908;51.984;5.928;2023-04-16T12:24:14;17.38;;;10.82;;
39022;SDS011;25908;51.984;5.928;2023-04-16T12:29:22;18.77;;;10.38;;
39022;SDS011;25908;51.984;5.928;2023-04-16T12:31:50;19.40;;;10.88;;
39022;SDS011;25908;51.984;5.928;2023-04-16T12:34:17;24.52;;;10.95;;
39022;SDS011;25908;51.984;5.928;2023-04-16T12:36:44;21.60;;;12.05;;
39022;SDS011;25908;51.984;5.928;2023-04-16T12:39:10;18.73;;;11.75;;
39022;SDS011;25908;51.984;5.928;2023-04-16T12:41:37;20.85;;;10.75;;
39022;SDS011;25908;51.984;5.928;2023-04-16T12:44:15;18.05;;;11.07;;
39022;SDS011;25908;51.984;5.928;2023-04-16T12:46:42;19.67;;;10.80;;
39022;SDS011;25908;51.984;5.928;2023-04-16T12:49:09;17.05;;;10.05;;
39022;SDS011;25908;51.984;5.928;2023-04-16T12:51:35;14.63;;;9.63;;
39022;SDS011;25908;51.984;5.928;2023-04-16T12:54:02;21.92;;;11.18;;
39022;SDS011;25908;51.984;5.928;2023-04-16T12:56:29;21.48;;;11.05;;
39022;SDS011;25908;51.984;5.928;2023-04-16T12:58:55;20.17;;;11.48;;
39022;SDS011;25908;51.984;5.928;2023-04-16T13:01:21;20.88;;;10.80;;
39022;SDS011;25908;51.984;5.928;2023-04-16T13:03:47;22.40;;;10.65;;
39022;SDS011;25908;51.984;5.928;2023-04-16T13:06:14;19.02;;;11.23;;
39022;SDS011;25908;51.984;5.928;2023-04-16T13:08:40;18.50;;;10.88;;
39022;SDS011;25908;51.984;5.928;2023-04-16T13:11:08;22.40;;;11.50;;
39022;SDS011;25908;51.984;5.928;2023-04-16T13:13:34;21.98;;;10.80;;
39022;SDS011;25908;51.984;5.928;2023-04-16T13:16:00;17.58;;;11.23;;
39022;SDS011;25908;51.984;5.928;2023-04-16T13:18:28;18.70;;;10.90;;
39022;SDS011;25908;51.984;5.928;2023-04-16T13:20:53;17.45;;;11.13;;
39022;SDS011;25908;51.984;5.928;2023-04-16T13:23:19;19.08;;;10.90;;
39022;SDS011;25908;51.984;5.928;2023-04-16T13:25:45;17.27;;;10.05;;
39022;SDS011;25908;51.984;5.928;2023-04-16T13:28:11;17.10;;;10.60;;
39022;SDS011;25908;51.984;5.928;2023-04-16T13:30:37;15.98;;;10.27;;
39022;SDS011;25908;51.984;5.928;2023-04-16T13:33:02;19.60;;;10.18;;
39022;SDS011;25908;51.984;5.928;2023-04-16T13:35:28;16.65;;;10.77;;
39022;SDS011;25908;51.984;5.928;2023-04-16T13:37:54;21.27;;;10.82;;
39022;SDS011;25908;51.984;5.928;2023-04-16T13:40:20;18.20;;;11.50;;
39022;SDS011;25908;51.984;5.928;2023-04-16T13:42:46;17.27;;;10.25;;
39022;SDS011;25908;51.984;5.928;2023-04-16T13:45:11;16.13;;;10.55;;
39022;SDS011;25908;51.984;5.928;2023-04-16T13:47:38;16.67;;;11.10;;
39022;SDS011;25908;51.984;5.928;2023-04-16T13:50:06;15.68;;;10.75;;
39022;SDS011;25908;51.984;5.928;2023-04-16T13:52:32;13.52;;;9.70;;
39022;SDS011;25908;51.984;5.928;2023-04-16T13:55:00;16.33;;;10.85;;
39022;SDS011;25908;51.984;5.928;2023-04-16T13:57:26;19.95;;;10.30;;
39022;SDS011;25908;51.984;5.928;2023-04-16T13:59:52;17.35;;;10.43;;
39022;SDS011;25908;51.984;5.928;2023-04-16T14:02:19;17.80;;;10.40;;
39022;SDS011;25908;51.984;5.928;2023-04-16T14:04:44;17.50;;;9.57;;
39022;SDS011;25908;51.984;5.928;2023-04-16T14:07:10;14.73;;;9.68;;
39022;SDS011;25908;51.984;5.928;2023-04-16T14:09:36;14.00;;;9.45;;
39022;SDS011;25908;51.984;5.928;2023-04-16T14:12:01;15.45;;;10.45;;
39022;SDS011;25908;51.984;5.928;2023-04-16T14:14:27;15.32;;;9.52;;
39022;SDS011;25908;51.984;5.928;2023-04-16T14:16:53;17.00;;;10.30;;
39022;SDS011;25908;51.984;5.928;2023-04-16T14:19:19;16.77;;;10.40;;
39022;SDS011;25908;51.984;5.928;2023-04-16T14:21:45;16.95;;;11.00;;
39022;SDS011;25908;51.984;5.928;2023-04-16T14:24:10;16.63;;;10.02;;
39022;SDS011;25908;51.984;5.928;2023-04-16T14:26:36;15.27;;;9.60;;
39022;SDS011;25908;51.984;5.928;2023-04-16T14:29:02;19.00;;;10.35;;
39022;SDS011;25908;51.984;5.928;2023-04-16T14:31:27;14.32;;;9.80;;
39022;SDS011;25908;51.984;5.928;2023-04-16T14:33:53;18.13;;;10.65;;
39022;SDS011;25908;51.984;5.928;2023-04-16T14:36:18;17.90;;;11.48;;